Time;durP1;ratioP1;P1;durP2;ratioP2;P2;SDS_P1;SDS_P2;PMS_P1;PMS_P2;Temp;Humidity;BMP_temperature;BMP_pressure;BME280_temperature;BME280_humidity;BME280_pressure;Samples;Min_cycle;Max_cycle;Signal;HPM_P1;HPM_P2
2022/06/13 00:00:29;;;;;;;1.90;1.80;;;;;;;25.98;33.47;96965.72;5135370;27;20031;-28
2022/06/13 00:02:55;;;;;;;2.47;2.10;;;;;;;25.92;33.78;96970.59;5135670;27;20027;-28
2022/06/13 00:05:20;;;;;;;1.80;1.70;;;;;;;26.02;33.47;96968.97;5135482;27;20413;-28
2022/06/13 00:07:46;;;;;;;1.95;1.85;;;;;;;25.82;34.07;96961.06;5135223;27;20058;-28
2022/06/13 00:10:12;;;;;;;1.73;1.63;;;;;;;26.02;33.60;96957.88;5135511;27;20026;-28
2022/06/13 00:12:40;;;;;;;1.80;1.52;;;;;;;25.98;33.41;96949.03;5135025;27;20039;-29
2022/06/13 00:15:06;;;;;;;1.90;1.80;;;;;;;25.99;33.47;96950.56;5135513;27;20046;-28
2022/06/13 00:17:32;;;;;;;2.33;1.60;;;;;;;26.02;33.47;96952.31;5135150;27;20072;-28
2022/06/13 00:19:57;;;;;;;1.55;1.45;;;;;;;26.06;33.64;96947.22;5116874;27;20125;-28
2022/06/13 00:22:23;;;;;;;1.92;1.83;;;;;;;26.04;33.59;96958.09;5134922;27;20059;-28
2022/06/13 00:24:48;;;;;;;2.22;1.80;;;;;;;26.04;33.52;96955.31;5135156;27;20038;-28
2022/06/13 00:27:15;;;;;;;1.95;1.80;;;;;;;26.03;33.44;96945.47;5135022;27;20015;-28
2022/06/13 00:29:41;;;;;;;2.35;1.60;;;;;;;26.06;33.68;96950.00;5135065;27;20023;-28
2022/06/13 00:32:07;;;;;;;2.08;1.80;;;;;;;26.00;33.60;96940.94;5134979;27;20497;-28
2022/06/13 00:34:33;;;;;;;2.63;1.80;;;;;;;26.03;33.32;96945.47;5134135;27;20023;-28
2022/06/13 00:36:58;;;;;;;1.63;1.52;;;;;;;26.04;33.35;96935.13;5134975;27;20027;-29
2022/06/13 00:39:24;;;;;;;2.25;1.58;;;;;;;26.04;33.63;96935.13;5134771;27;20019;-27
2022/06/13 00:41:49;;;;;;;2.63;1.80;;;;;;;26.05;33.66;96936.63;5135023;27;20060;-27
2022/06/13 00:44:25;;;;;;;2.28;1.75;;;;;;;26.03;33.73;96923.25;5134851;27;20054;-28
2022/06/13 00:46:51;;;;;;;2.47;1.73;;;;;;;26.04;33.67;96921.97;5134820;27;20108;-28
2022/06/13 00:49:26;;;;;;;1.60;1.50;;;;;;;26.04;33.80;96913.63;5136861;27;20035;-28
2022/06/13 00:52:04;;;;;;;1.80;1.70;;;;;;;26.02;33.64;96910.63;5136685;27;20019;-28
2022/06/13 00:54:34;;;;;;;1.70;1.60;;;;;;;26.01;33.79;96909.09;5136658;27;20110;-27
2022/06/13 00:57:00;;;;;;;1.65;1.40;;;;;;;26.01;33.71;96906.31;5136476;27;20064;-27
2022/06/13 00:59:31;;;;;;;1.90;1.80;;;;;;;25.93;33.97;96904.66;5136267;27;20058;-27
2022/06/13 01:01:57;;;;;;;1.55;1.40;;;;;;;26.00;33.39;96906.84;5136515;27;20102;-28
2022/06/13 01:04:22;;;;;;;1.73;1.63;;;;;;;26.01;33.46;96909.09;5117874;27;20035;-28
2022/06/13 01:06:50;;;;;;;1.65;1.55;;;;;;;26.07;33.28;96912.59;5136486;27;20094;-28
2022/06/13 01:09:18;;;;;;;1.80;1.60;;;;;;;26.05;33.67;96912.38;5136282;27;20490;-28
2022/06/13 01:11:53;;;;;;;2.08;1.67;;;;;;;26.04;33.76;96905.31;5136098;27;20053;-30
2022/06/13 01:14:40;;;;;;;1.75;1.65;;;;;;;26.03;33.59;96912.13;5136043;27;20448;-28
2022/06/13 01:17:26;;;;;;;1.70;1.60;;;;;;;26.01;33.44;96906.31;5136129;27;20088;-29
2022/06/13 01:19:55;;;;;;;2.42;1.50;;;;;;;26.00;33.42;96915.94;5136292;27;20019;-28
2022/06/13 01:22:47;;;;;;;1.60;1.48;;;;;;;25.88;33.62;96905.44;5136135;27;20050;-28
2022/06/13 01:25:31;;;;;;;1.85;1.75;;;;;;;26.00;33.69;96913.16;5136208;27;20348;-28
2022/06/13 01:28:03;;;;;;;1.73;1.60;;;;;;;25.99;33.54;96917.22;5135951;27;20102;-28
2022/06/13 01:30:53;;;;;;;1.83;1.70;;;;;;;26.00;33.56;96896.47;5135731;27;20031;-27
2022/06/13 01:33:27;;;;;;;2.45;1.50;;;;;;;26.01;33.34;96905.56;5135844;27;20102;-28
2022/06/13 01:36:26;;;;;;;1.67;1.58;;;;;;;26.04;33.32;96899.00;5135679;27;20386;-28
2022/06/13 01:39:27;;;;;;;2.10;1.75;;;;;;;25.99;33.68;96902.56;5135813;27;20114;-28
2022/06/13 01:41:58;;;;;;;1.65;1.50;;;;;;;26.01;33.35;96902.78;5128348;27;20075;-28
2022/06/13 01:44:33;;;;;;;2.40;1.83;;;;;;;25.97;33.65;96899.53;5117326;27;20023;-27
2022/06/13 01:47:10;;;;;;;2.38;1.85;;;;;;;26.00;33.25;96893.69;5135020;27;20026;-27
2022/06/13 01:49:42;;;;;;;1.80;1.70;;;;;;;25.93;33.59;96891.50;5135454;27;20033;-27
2022/06/13 01:52:17;;;;;;;1.80;1.67;;;;;;;25.98;33.73;96887.16;5135514;27;20023;-28
2022/06/13 01:54:47;;;;;;;1.60;1.50;;;;;;;25.94;33.68;96884.69;5135505;27;20030;-28
2022/06/13 01:57:13;;;;;;;1.92;1.83;;;;;;;25.97;33.65;96889.19;5135207;27;20030;-27
2022/06/13 01:59:45;;;;;;;1.88;1.60;;;;;;;25.97;33.42;96880.09;5135320;27;20019;-28
2022/06/13 02:02:21;;;;;;;2.00;1.80;;;;;;;25.97;33.69;96886.41;5135200;27;20027;-28
2022/06/13 02:05:00;;;;;;;1.52;1.42;;;;;;;25.95;33.81;96885.44;5135288;27;20087;-27
2022/06/13 02:07:36;;;;;;;1.90;1.58;;;;;;;25.86;33.91;96872.59;5135482;27;20486;-28
2022/06/13 02:10:25;;;;;;;2.40;1.85;;;;;;;25.89;33.53;96882.69;5116928;27;20027;-28
2022/06/13 02:12:55;;;;;;;1.52;1.42;;;;;;;25.90;33.92;96886.97;5135124;27;20068;-27
2022/06/13 02:15:28;;;;;;;1.60;1.50;;;;;;;25.96;33.69;96890.47;5135180;27;20055;-28
2022/06/13 02:18:02;;;;;;;1.70;1.60;;;;;;;25.95;33.49;96894.53;5134961;27;20019;-28
2022/06/13 02:20:39;;;;;;;2.28;1.50;;;;;;;25.95;33.41;96894.53;5135025;27;20110;-27
2022/06/13 02:23:16;;;;;;;1.67;1.58;;;;;;;25.95;33.86;96897.31;5134859;27;20051;-28
2022/06/13 02:25:57;;;;;;;2.17;1.80;;;;;;;25.98;33.44;96887.16;5134767;27;20026;-28
2022/06/13 02:28:36;;;;;;;2.00;1.80;;;;;;;25.96;33.71;96896.03;5134925;27;20019;-27
2022/06/13 02:31:08;;;;;;;2.17;1.83;;;;;;;25.96;33.55;96907.16;5134702;27;20031;-29
2022/06/13 02:33:54;;;;;;;2.17;1.77;;;;;;;25.93;33.82;96894.28;5134917;27;20055;-28
2022/06/13 02:36:49;;;;;;;2.13;1.73;;;;;;;25.92;33.90;96892.78;5134940;27;20451;-27
2022/06/13 02:39:23;;;;;;;2.20;1.88;;;;;;;25.96;33.32;96882.13;5134691;27;20062;-27
2022/06/13 02:42:04;;;;;;;1.55;1.45;;;;;;;25.92;33.79;96895.56;5134770;27;20033;-28
2022/06/13 02:44:42;;;;;;;1.80;1.65;;;;;;;25.90;33.60;96895.31;5134523;27;20023;-28
2022/06/13 02:47:21;;;;;;;2.00;1.80;;;;;;;25.94;33.40;96901.34;5131411;27;20455;-28
2022/06/13 02:49:53;;;;;;;2.00;1.60;;;;;;;25.94;33.62;96893.00;5132434;27;20475;-27
2022/06/13 02:52:32;;;;;;;1.80;1.70;;;;;;;25.92;33.46;96892.78;5134382;27;20027;-29
2022/06/13 02:55:03;;;;;;;1.52;1.42;;;;;;;25.90;33.49;96886.97;5134556;27;20115;-29
2022/06/13 02:57:38;;;;;;;1.88;1.77;;;;;;;25.91;33.41;96884.94;5134247;27;20033;-28
2022/06/13 03:00:34;;;;;;;1.98;1.88;;;;;;;25.94;33.52;96893.00;5134528;28;20459;-28
2022/06/13 03:03:24;;;;;;;3.28;1.80;;;;;;;25.83;33.79;96890.31;5134552;28;20027;-30
2022/06/13 03:06:08;;;;;;;2.17;1.50;;;;;;;25.87;33.51;96887.25;5134383;28;20030;-27
2022/06/13 03:08:52;;;;;;;1.50;1.40;;;;;;;25.88;33.62;96885.97;5134230;28;20023;-28
2022/06/13 03:11:29;;;;;;;2.13;1.42;;;;;;;25.88;33.46;96892.28;5134314;28;20471;-28
2022/06/13 03:14:17;;;;;;;1.75;1.60;;;;;;;25.86;33.76;96886.50;5134013;28;20047;-28
2022/06/13 03:16:43;;;;;;;1.52;1.30;;;;;;;25.87;33.53;96884.47;5134243;28;20058;-28
2022/06/13 03:19:21;;;;;;;1.70;1.60;;;;;;;25.93;33.29;96885.19;5134095;28;20054;-28
2022/06/13 03:21:51;;;;;;;2.30;1.50;;;;;;;25.92;33.61;96887.22;5134459;28;20045;-28
2022/06/13 03:24:32;;;;;;;2.03;1.48;;;;;;;25.90;33.31;96883.44;5134092;28;20031;-30
2022/06/13 03:27:10;;;;;;;1.83;1.67;;;;;;;25.89;33.69;96879.91;5134534;28;20019;-28
2022/06/13 03:29:47;;;;;;;2.38;1.67;;;;;;;25.86;33.82;96885.75;5134124;28;20037;-28
2022/06/13 03:32:18;;;;;;;1.80;1.63;;;;;;;25.86;33.60;96880.94;5134127;28;20086;-28
2022/06/13 03:34:51;;;;;;;1.90;1.70;;;;;;;25.85;33.80;96884.97;5134251;28;20443;-28
2022/06/13 03:37:29;;;;;;;1.60;1.50;;;;;;;25.90;33.17;96884.19;5134078;28;20019;-28
2022/06/13 03:40:06;;;;;;;1.90;1.70;;;;;;;25.85;33.71;96884.22;5134166;28;20098;-28
2022/06/13 03:42:40;;;;;;;3.20;1.77;;;;;;;25.90;33.45;96892.53;5133795;28;20022;-29
2022/06/13 03:45:16;;;;;;;1.92;1.80;;;;;;;25.88;33.34;96883.19;5133982;28;20189;-28
2022/06/13 03:47:52;;;;;;;2.38;2.17;;;;;;;25.83;33.76;96886.78;5134124;28;20042;-28
2022/06/13 03:50:26;;;;;;;2.10;1.73;;;;;;;25.84;33.40;96891.09;5133870;28;20443;-27
2022/06/13 03:53:01;;;;;;;1.80;1.60;;;;;;;25.79;33.58;96880.75;5133932;28;20095;-28
2022/06/13 03:55:34;;;;;;;2.15;1.95;;;;;;;25.81;33.84;96875.44;5134129;28;20333;-28
2022/06/13 03:58:02;;;;;;;;;;;;;;;25.80;33.60;96871.16;5134428;28;20039;-27
2022/06/13 04:00:41;;;;;;;2.20;2.00;;;;;;;25.85;33.64;96873.13;5133748;28;19966;-29
2022/06/13 04:03:08;;;;;;;1.80;1.70;;;;;;;25.85;33.34;96873.13;5133807;28;20023;-28
2022/06/13 04:05:56;;;;;;;2.38;2.17;;;;;;;25.85;33.33;96881.44;5133706;28;20019;-28
2022/06/13 04:08:22;;;;;;;2.13;1.90;;;;;;;25.82;33.33;96877.69;5133869;27;20090;-27
2022/06/13 04:11:00;;;;;;;2.08;1.88;;;;;;;25.81;33.41;96878.97;5137135;27;20416;-27
2022/06/13 04:13:57;;;;;;;2.08;1.77;;;;;;;25.84;33.45;96882.75;5137449;27;20050;-28
2022/06/13 04:16:47;;;;;;;2.30;2.10;;;;;;;25.84;33.46;96879.97;5137601;27;20452;-28
2022/06/13 04:19:40;;;;;;;2.22;1.83;;;;;;;25.80;33.33;96887.81;5137301;27;20023;-28
2022/06/13 04:22:14;;;;;;;2.78;2.15;;;;;;;25.85;33.65;96890.53;5137261;27;20463;-28
2022/06/13 04:24:58;;;;;;;2.92;2.22;;;;;;;25.84;33.46;96891.81;5137214;27;20451;-29
2022/06/13 04:27:33;;;;;;;2.80;2.00;;;;;;;25.80;33.80;96894.13;5137110;27;20019;-29
2022/06/13 04:30:12;;;;;;;3.13;2.20;;;;;;;25.80;33.35;96899.69;5137121;27;20019;-28
2022/06/13 04:32:48;;;;;;;2.20;1.92;;;;;;;25.82;33.47;96896.41;5136928;27;20023;-27
2022/06/13 04:35:15;;;;;;;2.22;2.03;;;;;;;25.82;33.69;96897.16;5137400;27;20027;-28
2022/06/13 04:37:42;;;;;;;2.20;2.00;;;;;;;25.77;33.83;96889.59;5136646;27;20047;-27
2022/06/13 04:40:13;;;;;;;3.00;2.00;;;;;;;25.80;33.72;96894.13;5136879;27;20019;-28
2022/06/13 04:42:41;;;;;;;2.60;1.77;;;;;;;25.78;33.58;96882.78;5136740;27;20356;-27
2022/06/13 04:45:18;;;;;;;2.72;1.80;;;;;;;25.74;33.72;96885.81;5136928;27;20359;-28
2022/06/13 04:47:46;;;;;;;2.30;2.10;;;;;;;25.83;33.46;96881.25;5136756;27;20019;-29
2022/06/13 04:50:16;;;;;;;1.95;1.70;;;;;;;25.66;33.61;96884.88;5136661;27;20023;-28
2022/06/13 04:52:44;;;;;;;2.00;1.75;;;;;;;25.73;33.84;96878.00;5136609;27;20114;-28
2022/06/13 04:55:13;;;;;;;2.55;1.83;;;;;;;25.82;33.69;96888.06;5136649;27;20019;-28
2022/06/13 04:57:38;;;;;;;2.22;2.08;;;;;;;25.78;33.52;96885.56;5136415;27;20031;-27
2022/06/13 05:00:09;;;;;;;2.20;1.90;;;;;;;25.65;33.97;96882.63;5136612;27;20027;-28
2022/06/13 05:02:45;;;;;;;2.13;1.75;;;;;;;25.75;33.72;96887.34;5136179;27;20495;-27
2022/06/13 05:05:25;;;;;;;2.95;1.75;;;;;;;25.72;33.70;96887.59;5136599;27;20066;-27
2022/06/13 05:07:51;;;;;;;2.00;1.83;;;;;;;25.68;33.75;96887.91;5136523;27;20030;-27
2022/06/13 05:10:20;;;;;;;1.90;1.67;;;;;;;25.69;33.78;96894.22;5136397;27;20359;-28
2022/06/13 05:12:46;;;;;;;4.88;2.00;;;;;;;25.75;34.09;96886.59;5136011;27;20077;-27
2022/06/13 05:15:25;;;;;;;2.35;1.92;;;;;;;25.79;33.74;96891.88;5136312;27;20409;-28
2022/06/13 05:18:25;;;;;;;1.83;1.73;;;;;;;25.77;33.86;96884.03;5136227;27;20075;-28
2022/06/13 05:21:18;;;;;;;1.77;1.60;;;;;;;25.75;33.71;96886.59;5135898;27;20049;-27
2022/06/13 05:23:55;;;;;;;1.80;1.70;;;;;;;25.76;33.88;96893.66;5136065;27;20030;-28
2022/06/13 05:26:27;;;;;;;1.80;1.70;;;;;;;25.61;34.10;96893.25;5136335;27;20023;-29
2022/06/13 05:28:52;;;;;;;3.45;2.00;;;;;;;25.69;33.77;96894.22;5136080;27;20019;-27
2022/06/13 05:31:19;;;;;;;2.65;1.67;;;;;;;25.71;34.01;96895.22;5135851;27;20019;-28
2022/06/13 05:33:46;;;;;;;2.85;1.75;;;;;;;25.75;33.75;96897.69;5135840;27;20023;-30
2022/06/13 05:36:17;;;;;;;2.13;1.90;;;;;;;25.80;33.99;96893.38;5135928;27;20027;-28
2022/06/13 05:38:46;;;;;;;2.88;1.80;;;;;;;25.72;34.04;96895.94;5135692;27;20038;-28
2022/06/13 05:41:12;;;;;;;2.08;1.77;;;;;;;25.70;34.06;96895.72;5135582;27;20059;-28
2022/06/13 05:43:37;;;;;;;2.95;1.95;;;;;;;25.74;33.69;96891.38;5135560;27;20034;-28
2022/06/13 05:46:08;;;;;;;1.83;1.63;;;;;;;25.79;34.19;96891.88;5135547;27;20103;-29
2022/06/13 05:48:33;;;;;;;2.63;1.70;;;;;;;25.77;33.89;96878.50;5135907;27;20011;-27
2022/06/13 05:50:59;;;;;;;2.22;1.70;;;;;;;25.68;34.14;96889.94;5135819;27;20030;-28
2022/06/13 05:53:26;;;;;;;2.17;1.63;;;;;;;25.70;34.02;96888.16;5132910;27;20038;-28
2022/06/13 05:55:59;;;;;;;2.75;1.90;;;;;;;25.77;33.96;96884.03;5133181;27;20027;-27
2022/06/13 05:58:25;;;;;;;1.85;1.70;;;;;;;25.72;34.01;96891.16;5133443;27;20064;-28
2022/06/13 06:00:53;;;;;;;1.75;1.65;;;;;;;25.70;34.35;96881.84;5133121;27;20435;-29
2022/06/13 06:03:19;;;;;;;1.85;1.60;;;;;;;25.69;34.11;96889.41;5133322;27;20019;-27
2022/06/13 06:05:45;;;;;;;2.35;1.60;;;;;;;25.74;34.03;96882.28;5132918;27;20026;-27
2022/06/13 06:08:23;;;;;;;2.78;1.80;;;;;;;25.78;33.90;96882.78;5132994;27;20038;-28
2022/06/13 06:10:51;;;;;;;1.92;1.77;;;;;;;25.51;34.22;96886.47;5133023;27;20030;-29
2022/06/13 06:13:17;;;;;;;2.17;1.60;;;;;;;25.50;34.22;96882.94;5132834;27;20140;-28
2022/06/13 06:15:45;;;;;;;2.33;1.83;;;;;;;25.60;34.16;96891.72;5132871;27;20027;-27
2022/06/13 06:18:11;;;;;;;3.05;1.85;;;;;;;25.47;33.49;96886.03;5132625;27;20027;-28
2022/06/13 06:20:36;;;;;;;1.95;1.65;;;;;;;25.49;33.86;96891.78;5132819;27;20054;-28
2022/06/13 06:23:03;;;;;;;2.00;1.80;;;;;;;25.71;34.00;96886.13;5131949;27;20433;-27
2022/06/13 06:25:29;;;;;;;4.40;2.05;;;;;;;25.47;33.97;96888.81;5132752;27;20031;-28
2022/06/13 06:27:55;;;;;;;2.60;1.70;;;;;;;25.40;34.13;96896.41;5132732;27;20721;-27
2022/06/13 06:30:21;;;;;;;2.60;1.55;;;;;;;25.29;34.20;96898.50;5124463;27;20130;-28
2022/06/13 06:32:46;;;;;;;2.97;1.70;;;;;;;25.54;34.21;96888.22;5121528;27;20019;-29
2022/06/13 06:35:13;;;;;;;1.77;1.63;;;;;;;25.64;33.55;96900.56;5120618;27;20058;-28
2022/06/13 06:37:39;;;;;;;1.70;1.60;;;;;;;25.49;34.18;96897.34;5120537;27;20024;-28
2022/06/13 06:40:06;;;;;;;2.78;1.73;;;;;;;25.69;33.79;96900.53;5119073;27;20028;-28
2022/06/13 06:42:32;;;;;;;1.50;1.40;;;;;;;25.59;34.10;96898.56;5111762;28;20110;-27
2022/06/13 06:44:58;;;;;;;2.30;1.95;;;;;;;25.71;33.75;96897.25;5112029;28;20102;-27
2022/06/13 06:47:23;;;;;;;3.05;2.00;;;;;;;25.40;34.66;96896.41;5112012;28;20916;-27
2022/06/13 06:49:49;;;;;;;3.67;1.67;;;;;;;25.52;33.95;96893.53;5123153;27;20607;-28
2022/06/13 06:52:14;;;;;;;2.30;1.90;;;;;;;25.60;33.83;96891.72;5132175;27;20035;-28
2022/06/13 07:00:08;;;;;;;2.00;1.80;;;;;;;25.66;34.10;96901.56;5132582;27;20026;-28
2022/06/13 07:02:34;;;;;;;2.08;1.63;;;;;;;25.60;34.13;96908.38;5132300;28;20027;-28
2022/06/13 07:05:04;;;;;;;2.65;1.50;;;;;;;25.45;34.35;96905.97;5132133;28;20118;-29
2022/06/13 07:07:30;;;;;;;1.77;1.60;;;;;;;25.73;33.89;96908.56;5113799;28;20026;-28
2022/06/13 07:09:56;;;;;;;2.67;1.60;;;;;;;25.28;34.50;96914.38;5132147;28;20027;-27
2022/06/13 07:12:22;;;;;;;2.28;1.50;;;;;;;24.98;34.54;96905.94;5132022;28;20132;-27
2022/06/13 07:14:48;;;;;;;2.10;1.90;;;;;;;25.21;34.81;96912.16;5132418;28;20087;-28
2022/06/13 07:17:14;;;;;;;2.83;1.60;;;;;;;25.34;34.82;96914.38;5132020;28;20035;-27
2022/06/13 07:19:43;;;;;;;2.35;1.75;;;;;;;25.17;34.73;96917.22;5132126;28;20095;-27
2022/06/13 07:22:13;;;;;;;1.58;1.48;;;;;;;25.64;34.22;96917.22;5132100;28;20383;-28
2022/06/13 07:24:38;;;;;;;5.28;2.00;;;;;;;25.65;33.85;96918.72;5132262;28;20038;-28
2022/06/13 07:27:04;;;;;;;4.40;1.67;;;;;;;25.61;33.95;96918.25;5132192;28;20023;-30
2022/06/13 07:29:30;;;;;;;4.85;1.58;;;;;;;25.35;34.19;96929.72;5131786;28;20049;-28
2022/06/13 07:32:04;;;;;;;2.83;1.60;;;;;;;25.22;34.58;96924.75;5131796;28;20023;-28
2022/06/13 07:34:32;;;;;;;9.38;2.20;;;;;;;25.56;34.30;96930.88;5113392;28;20026;-27
2022/06/13 07:37:00;;;;;;;2.25;1.50;;;;;;;25.46;33.89;96926.16;5113826;28;20364;-27
2022/06/13 07:39:25;;;;;;;3.38;1.73;;;;;;;25.65;34.01;96927.81;5113670;28;20020;-28
2022/06/13 07:41:52;;;;;;;2.08;1.60;;;;;;;25.62;34.00;96930.88;5113343;28;20023;-28
2022/06/13 07:44:25;;;;;;;2.20;1.80;;;;;;;25.55;33.66;96920.28;5114566;28;20055;-29
2022/06/13 07:46:51;;;;;;;2.22;1.75;;;;;;;24.94;34.93;96924.13;5117490;28;20100;-28
2022/06/13 07:49:19;;;;;;;4.55;1.80;;;;;;;25.22;34.38;96919.19;5117302;28;20051;-27
2022/06/13 07:51:45;;;;;;;3.78;1.70;;;;;;;25.36;33.56;96920.13;5117292;28;20027;-28
2022/06/13 07:54:11;;;;;;;1.95;1.52;;;;;;;25.40;33.85;96915.84;5117113;28;20479;-27
2022/06/13 07:56:38;;;;;;;3.28;1.50;;;;;;;25.44;33.65;96926.69;5116749;28;20038;-28
2022/06/13 07:59:05;;;;;;;2.42;1.50;;;;;;;25.35;33.61;96922.16;5116061;28;20442;-27
2022/06/13 08:01:31;;;;;;;2.60;1.63;;;;;;;25.48;32.95;96929.91;5115992;28;20027;-27
2022/06/13 08:03:57;;;;;;;1.90;1.80;;;;;;;25.69;33.54;96928.31;5116329;28;20035;-28
2022/06/13 08:06:24;;;;;;;2.25;1.55;;;;;;;25.47;33.93;96936.00;5116548;28;20028;-27
2022/06/13 08:08:50;;;;;;;3.15;1.50;;;;;;;25.73;33.59;96928.78;5116791;28;20030;-27
2022/06/13 08:11:22;;;;;;;2.58;1.60;;;;;;;25.76;33.16;96921.44;5116911;28;20098;-27
2022/06/13 08:13:48;;;;;;;1.75;1.40;;;;;;;25.77;32.88;96925.72;5115438;28;20044;-27
2022/06/13 08:16:13;;;;;;;2.67;1.80;;;;;;;25.66;33.55;96931.34;5116789;28;20357;-27
2022/06/13 08:18:40;;;;;;;2.08;1.75;;;;;;;25.77;33.34;96934.06;5116774;28;20061;-28
2022/06/13 08:21:05;;;;;;;2.55;1.80;;;;;;;25.79;33.19;96931.53;5116438;28;20019;-27
2022/06/13 08:23:32;;;;;;;5.70;1.58;;;;;;;25.20;32.22;96930.09;5115924;28;20365;-25
2022/06/13 08:25:57;;;;;;;3.05;1.40;;;;;;;25.19;32.54;96930.59;5116380;28;20076;-27
2022/06/13 08:28:23;;;;;;;4.50;1.75;;;;;;;25.57;32.17;96931.66;5116362;28;20023;-27
2022/06/13 08:31:11;;;;;;;6.10;1.52;;;;;;;25.62;32.76;96917.75;5115689;28;20023;-27
2022/06/13 08:33:37;;;;;;;3.30;1.63;;;;;;;25.70;32.48;96917.97;5116218;28;20023;-29
2022/06/13 08:36:04;;;;;;;1.75;1.40;;;;;;;25.80;32.73;96916.34;5116491;28;20020;-27
2022/06/13 08:38:30;;;;;;;3.70;1.30;;;;;;;25.81;32.68;96915.09;5116481;28;20106;-28
2022/06/13 08:41:14;;;;;;;2.05;1.50;;;;;;;25.54;31.80;96925.09;5116338;28;20028;-27
2022/06/13 08:44:28;;;;;;;5.10;1.60;;;;;;;25.75;32.84;96920.69;5115900;28;20062;-27
2022/06/13 08:47:03;;;;;;;1.48;1.38;;;;;;;25.79;32.34;96920.41;5013630;28;20433;-30
2022/06/13 08:49:50;;;;;;;1.58;1.30;;;;;;;25.75;32.17;96922.69;5013520;28;20065;-27
2022/06/13 08:52:28;;;;;;;2.60;1.40;;;;;;;25.73;32.62;96920.44;5012617;28;20030;-28
2022/06/13 08:55:07;;;;;;;3.15;1.60;;;;;;;25.84;32.94;96922.38;5012217;28;20038;-27
2022/06/13 08:57:35;;;;;;;6.05;1.30;;;;;;;25.81;32.57;96923.44;5012834;28;20053;-28
2022/06/13 09:00:11;;;;;;;3.17;1.60;;;;;;;25.81;32.21;96928.97;5013759;28;20080;-27
2022/06/13 09:03:03;;;;;;;1.58;1.40;;;;;;;25.81;32.43;96923.44;5013717;28;20513;-27
2022/06/13 09:05:35;;;;;;;2.60;1.40;;;;;;;25.81;32.92;96923.44;5013294;28;20398;-27
2022/06/13 09:08:32;;;;;;;1.75;1.50;;;;;;;25.82;32.65;96924.94;5013519;28;20085;-28
2022/06/13 09:11:13;;;;;;;1.70;1.35;;;;;;;25.78;32.58;96918.91;4997512;28;20478;-28
2022/06/13 09:13:59;;;;;;;1.35;1.25;;;;;;;25.64;32.70;96922.78;5013238;28;20046;-27
2022/06/13 09:16:28;;;;;;;2.60;1.20;;;;;;;25.47;33.11;96922.13;5019139;28;20044;-27
2022/06/13 09:19:20;;;;;;;1.70;1.45;;;;;;;25.66;32.75;96923.03;5032652;28;20065;-27
2022/06/13 09:22:04;;;;;;;2.72;1.75;;;;;;;25.71;32.76;96934.09;5111452;28;20036;-27
2022/06/13 09:24:36;;;;;;;1.50;1.40;;;;;;;25.62;33.13;96928.84;5107295;27;20080;-28
2022/06/13 09:27:07;;;;;;;2.75;1.73;;;;;;;25.76;33.12;96930.53;5098360;28;20495;-29
2022/06/13 09:29:50;;;;;;;2.05;1.48;;;;;;;25.81;33.19;96922.66;5124909;27;20106;-28
2022/06/13 09:32:22;;;;;;;1.48;1.38;;;;;;;25.85;33.16;96926.66;5132421;27;20027;-27
2022/06/13 09:34:54;;;;;;;3.83;1.30;;;;;;;25.87;33.21;96926.91;5118294;27;20045;-28
2022/06/13 09:37:49;;;;;;;2.63;1.45;;;;;;;25.87;32.81;96929.69;5112758;28;20023;-29
2022/06/13 09:40:25;;;;;;;3.03;1.30;;;;;;;25.82;32.96;96924.94;5111046;28;20027;-27
2022/06/13 09:43:00;;;;;;;3.10;1.30;;;;;;;25.81;33.12;96915.09;5112965;28;20031;-27
2022/06/13 09:45:57;;;;;;;2.25;1.25;;;;;;;25.90;32.69;96914.75;5112006;28;20089;-28
2022/06/13 09:48:44;;;;;;;3.13;1.60;;;;;;;25.90;33.03;96917.53;5112648;28;20408;-27
2022/06/13 09:51:25;;;;;;;9.60;1.70;;;;;;;25.74;33.20;96901.75;5112771;28;20472;-28
2022/06/13 09:54:12;;;;;;;7.75;1.60;;;;;;;25.84;32.94;96894.59;5132199;27;20062;-29
2022/06/13 09:57:16;;;;;;;12.70;2.08;;;;;;;25.79;32.74;96892.63;5132028;27;20491;-27
2022/06/13 09:59:50;;;;;;;6.28;1.80;;;;;;;25.89;32.85;96899.34;5132214;27;20528;-27
2022/06/13 10:02:15;;;;;;;8.85;2.35;;;;;;;25.87;32.69;96888.00;5132216;27;20030;-28
2022/06/13 10:04:59;;;;;;;9.32;2.13;;;;;;;25.85;33.11;96900.91;5131626;27;20043;-27
2022/06/13 10:07:52;;;;;;;10.88;2.20;;;;;;;25.93;32.76;96891.50;5130775;27;20099;-26
2022/06/13 10:11:07;;;;;;;8.68;2.58;;;;;;;25.89;32.72;96893.81;5133140;27;20037;-28
2022/06/13 10:14:07;;;;;;;14.48;2.25;;;;;;;25.90;32.49;96889.75;5108214;27;20062;-28
2022/06/13 10:16:45;;;;;;;9.00;2.42;;;;;;;25.92;32.29;96884.44;5125669;27;20054;-27
2022/06/13 10:19:10;;;;;;;6.38;2.08;;;;;;;26.00;32.15;96890.94;5132925;27;20104;-27
2022/06/13 10:21:51;;;;;;;3.70;1.98;;;;;;;25.98;32.55;96892.72;5132721;27;20043;-27
2022/06/13 10:24:19;;;;;;;8.38;2.10;;;;;;;25.95;32.30;96885.44;5132617;27;20031;-27
2022/06/13 10:26:51;;;;;;;8.15;2.42;;;;;;;25.98;32.12;96882.34;5132873;27;20046;-28
2022/06/13 10:29:41;;;;;;;6.80;2.30;;;;;;;25.96;32.10;96882.13;5132733;27;20084;-28
2022/06/13 10:32:24;;;;;;;6.25;2.08;;;;;;;25.91;32.38;96896.06;5132873;27;20019;-28
2022/06/13 10:35:20;;;;;;;6.10;1.83;;;;;;;25.81;31.85;96897.66;5134444;27;20022;-27
2022/06/13 10:38:24;;;;;;;6.32;2.08;;;;;;;25.84;31.75;96882.75;5133820;27;20026;-27
2022/06/13 10:40:50;;;;;;;10.85;2.20;;;;;;;25.89;31.31;96879.16;5134824;27;20098;-27
2022/06/13 10:43:16;;;;;;;6.75;1.80;;;;;;;25.93;31.26;96876.84;5134640;27;20023;-27
2022/06/13 10:45:43;;;;;;;3.40;1.80;;;;;;;25.82;30.32;96868.63;5134458;27;20391;-27
2022/06/13 10:48:17;;;;;;;2.78;1.65;;;;;;;25.93;30.89;96874.81;5134582;27;20028;-27
2022/06/13 10:50:53;;;;;;;4.07;1.55;;;;;;;25.85;31.16;96867.56;5134632;27;20102;-27
2022/06/13 10:53:39;;;;;;;5.80;1.60;;;;;;;25.89;30.40;96866.00;5134499;27;20023;-28
2022/06/13 10:56:11;;;;;;;4.57;1.42;;;;;;;25.84;30.36;96860.53;5134606;27;20068;-28
2022/06/13 10:58:50;;;;;;;1.70;1.30;;;;;;;25.99;30.67;96864.41;5134024;28;20035;-27
2022/06/13 11:01:19;;;;;;;3.47;1.60;;;;;;;25.80;30.45;96860.78;5134513;27;20023;-27
2022/06/13 11:04:20;;;;;;;2.50;1.55;;;;;;;25.95;30.22;96850.06;5134139;28;20034;-29
2022/06/13 11:06:47;;;;;;;3.00;1.33;;;;;;;26.00;30.29;96859.59;5133854;28;20088;-27
2022/06/13 11:09:37;;;;;;;3.95;1.38;;;;;;;25.91;30.31;96849.56;5134316;28;20421;-27
2022/06/13 11:12:17;;;;;;;1.98;1.48;;;;;;;25.99;30.36;96847.72;5133975;28;20019;-27
2022/06/13 11:23:14;;;;;;;2.17;1.42;;;;;;;26.00;30.45;96835.34;5138574;27;20030;-27
2022/06/13 11:25:39;;;;;;;3.67;1.30;;;;;;;25.80;30.85;96833.00;5138228;27;20379;-27
2022/06/13 11:28:11;;;;;;;2.65;1.58;;;;;;;25.87;30.26;96832.44;5138577;27;20103;-27
2022/06/13 11:30:40;;;;;;;2.78;1.48;;;;;;;26.05;30.29;96828.97;5137775;27;20045;-27
2022/06/13 11:33:24;;;;;;;5.18;1.70;;;;;;;25.89;30.79;96838.22;5138142;27;20474;-27
2022/06/13 11:35:58;;;;;;;2.90;1.20;;;;;;;25.81;30.94;96826.19;5138094;27;20034;-27
2022/06/13 11:38:49;;;;;;;2.17;1.45;;;;;;;25.89;30.85;96827.09;5138039;27;20468;-27
2022/06/13 11:41:21;;;;;;;2.10;1.30;;;;;;;25.91;30.73;96819.00;5138190;27;20038;-27
2022/06/13 11:44:00;;;;;;;1.90;1.42;;;;;;;25.82;30.61;96815.81;5137844;27;20031;-28
2022/06/13 11:46:31;;;;;;;2.05;1.50;;;;;;;25.84;30.49;96819.56;5137968;27;20019;-28
2022/06/13 11:49:02;;;;;;;2.97;1.40;;;;;;;25.80;30.46;96813.56;5137852;27;20448;-27
2022/06/13 11:51:34;;;;;;;3.75;1.40;;;;;;;25.85;30.43;96818.28;5138113;27;20023;-27
2022/06/13 11:54:00;;;;;;;2.13;1.20;;;;;;;25.72;30.78;96810.59;5137853;27;20035;-28
2022/06/13 11:56:32;;;;;;;1.52;1.33;;;;;;;25.75;30.19;96806.03;5137909;27;20033;-27
2022/06/13 11:59:01;;;;;;;2.08;1.35;;;;;;;25.77;30.52;96806.25;5137363;27;20023;-27
2022/06/13 12:01:30;;;;;;;3.95;1.50;;;;;;;25.74;30.19;96810.81;5137744;27;20119;-27
2022/06/13 12:04:01;;;;;;;3.42;1.27;;;;;;;25.75;30.28;96808.81;5137367;27;20047;-27
2022/06/13 12:06:33;;;;;;;2.00;1.20;;;;;;;25.95;30.16;96802.81;5137463;27;20027;-27
2022/06/13 12:09:04;;;;;;;1.35;1.25;;;;;;;25.85;29.90;96807.19;5137473;27;20069;-27
2022/06/13 12:11:29;;;;;;;1.60;1.10;;;;;;;25.94;29.81;96795.00;5137512;27;20372;-27
2022/06/13 12:13:59;;;;;;;1.38;1.08;;;;;;;25.86;29.90;96796.81;5118852;27;20055;-27
2022/06/13 12:16:33;;;;;;;1.67;1.23;;;;;;;25.85;29.34;96798.84;5137561;27;20106;-27
2022/06/13 12:19:13;;;;;;;2.25;1.30;;;;;;;25.88;29.56;96797.06;5137146;27;20024;-29